Time;durP1;ratioP1;P1;durP2;ratioP2;P2;SDS_P1;SDS_P2;PMS_P1;PMS_P2;Temp;Humidity;BMP_temperature;BMP_pressure;BME280_temperature;BME280_humidity;BME280_pressure;Samples;Min_cycle;Max_cycle;Signal;HPM_P1;HPM_P2
2022/10/12 00:00:59;;;;;;;17.90;4.80;;;;;;;12.27;59.51;102291.63;5031472;28;101513;-66
2022/10/12 00:03:26;;;;;;;16.67;4.63;;;;;;;12.22;59.73;102304.06;5030442;27;98861;-66
2022/10/12 00:06:01;;;;;;;11.98;3.85;;;;;;;12.14;59.97;102308.63;5030559;28;96797;-66
2022/10/12 00:08:28;;;;;;;12.57;4.13;;;;;;;12.17;60.10;102308.56;5030598;28;96914;-65
2022/10/12 00:10:55;;;;;;;12.95;4.80;;;;;;;12.28;59.30;102304.81;5028075;27;99326;-66
2022/10/12 00:13:21;;;;;;;16.30;4.68;;;;;;;12.23;59.26;102311.09;5018518;27;99525;-65
2022/10/12 00:15:48;;;;;;;14.05;3.80;;;;;;;12.11;59.47;102311.31;5015562;27;96948;-65
2022/10/12 00:18:16;;;;;;;11.90;4.30;;;;;;;12.07;59.57;102310.53;5015386;28;98638;-66
2022/10/12 00:20:43;;;;;;;17.05;4.78;;;;;;;12.01;59.62;102307.09;5014073;27;98822;-65
2022/10/12 00:23:09;;;;;;;13.98;4.28;;;;;;;12.11;59.84;102313.97;5014130;27;98881;-66
2022/10/12 00:25:36;;;;;;;10.90;4.13;;;;;;;12.17;59.56;102308.56;5017016;27;99010;-65
2022/10/12 00:28:03;;;;;;;18.60;4.35;;;;;;;11.98;59.69;102308.00;5022249;28;99053;-66
2022/10/12 00:30:30;;;;;;;12.38;4.63;;;;;;;12.18;59.01;102310.31;5015511;28;99036;-65
2022/10/12 00:32:57;;;;;;;17.20;4.20;;;;;;;12.11;59.43;102312.19;5015359;28;102066;-66
2022/10/12 00:35:25;;;;;;;14.18;4.80;;;;;;;12.35;58.83;102308.22;5016231;28;97115;-66
2022/10/12 00:37:53;;;;;;;17.23;4.88;;;;;;;12.18;59.10;102312.97;5014753;27;98791;-66
2022/10/12 00:40:19;;;;;;;15.27;4.97;;;;;;;12.15;59.31;102310.34;5013862;27;98766;-67
2022/10/12 00:42:47;;;;;;;12.52;4.68;;;;;;;12.11;59.27;102311.31;5020395;28;99522;-66
2022/10/12 00:45:14;;;;;;;13.00;4.72;;;;;;;12.27;58.80;102311.03;5028806;28;97722;-66
2022/10/12 00:47:47;;;;;;;15.85;5.65;;;;;;;12.36;58.87;102318.81;5030134;28;96836;-66
2022/10/12 00:50:24;;;;;;;11.70;4.72;;;;;;;12.34;59.03;102317.97;5028046;28;99282;-67
2022/10/12 00:52:57;;;;;;;12.55;4.15;;;;;;;12.15;59.56;102319.19;5030787;27;101906;-66
2022/10/12 00:55:26;;;;;;;15.63;4.60;;;;;;;12.13;59.69;102320.13;5029402;28;99044;-65
2022/10/12 00:57:54;;;;;;;15.38;5.22;;;;;;;12.01;59.74;102323.00;5030394;27;96817;-66
2022/10/12 01:00:22;;;;;;;10.20;4.65;;;;;;;12.29;59.05;102319.81;5029749;28;97645;-67
2022/10/12 01:02:51;;;;;;;14.50;4.70;;;;;;;12.10;59.52;102322.81;5028681;28;98795;-66
2022/10/12 01:05:18;;;;;;;10.50;4.53;;;;;;;11.98;59.43;102318.59;5029128;28;96821;-66
2022/10/12 01:07:45;;;;;;;14.07;4.68;;;;;;;11.86;60.18;102319.69;5030651;28;96787;-66
2022/10/12 01:10:14;;;;;;;15.63;4.57;;;;;;;11.82;60.19;102320.63;5027011;28;101537;-66
2022/10/12 01:12:43;;;;;;;12.63;4.90;;;;;;;11.92;59.91;102316.94;5022039;27;97680;-65
2022/10/12 01:15:11;;;;;;;12.70;4.65;;;;;;;11.97;59.78;102314.19;5026808;28;96841;-66
2022/10/12 01:17:44;;;;;;;14.93;4.78;;;;;;;11.73;60.47;102320.75;5025480;28;98031;-66
2022/10/12 01:20:33;;;;;;;14.45;4.75;;;;;;;11.87;60.23;102323.22;5025839;28;101737;-66
2022/10/12 01:23:40;;;;;;;10.57;3.97;;;;;;;11.90;60.28;102325.78;5028502;28;98061;-65
2022/10/12 01:26:26;;;;;;;12.17;4.03;;;;;;;11.94;60.37;102327.53;5028015;28;97252;-65
2022/10/12 01:28:58;;;;;;;13.23;4.72;;;;;;;11.93;59.88;102331.06;5019796;28;98426;-66
2022/10/12 01:31:33;;;;;;;10.48;4.38;;;;;;;12.15;59.16;102328.91;5013110;28;99089;-66
2022/10/12 01:34:05;;;;;;;11.90;4.40;;;;;;;12.08;59.32;102322.00;5013703;28;104313;-66
2022/10/12 01:36:35;;;;;;;11.60;4.20;;;;;;;11.98;59.78;102329.19;5012502;28;97171;-65
2022/10/12 01:39:08;;;;;;;11.40;3.55;;;;;;;12.03;59.96;102327.34;5013185;28;97725;-65
2022/10/12 01:41:38;;;;;;;13.27;4.38;;;;;;;12.00;59.84;102326.53;5022514;27;98922;-66
2022/10/12 01:44:06;;;;;;;11.38;4.30;;;;;;;11.82;59.84;102328.56;5028893;27;100115;-67
2022/10/12 01:46:44;;;;;;;14.60;5.43;;;;;;;11.77;59.98;102334.84;5025644;28;96782;-65
2022/10/12 01:49:14;;;;;;;11.55;4.30;;;;;;;11.81;60.22;102333.91;5030966;28;96990;-67
2022/10/12 01:51:58;;;;;;;12.57;4.60;;;;;;;11.75;60.45;102326.06;5028569;28;99170;-66
2022/10/12 01:54:34;;;;;;;13.95;4.03;;;;;;;11.69;60.64;102331.38;5029132;27;98829;-66
2022/10/12 01:57:08;;;;;;;11.55;4.00;;;;;;;11.78;60.33;102332.16;5026054;28;97331;-66
2022/10/12 01:59:46;;;;;;;13.55;4.30;;;;;;;11.63;60.47;102331.47;5026437;28;96979;-64
2022/10/12 02:02:23;;;;;;;11.70;3.90;;;;;;;11.82;59.97;102327.69;5029656;27;98976;-65
2022/10/12 02:04:54;;;;;;;12.43;4.72;;;;;;;11.84;60.09;102329.41;5024437;28;99329;-65
2022/10/12 02:07:25;;;;;;;12.07;4.53;;;;;;;11.78;59.98;102326.00;5026154;28;96746;-66
2022/10/12 02:09:56;;;;;;;13.77;4.32;;;;;;;11.77;60.20;102332.19;5025563;27;99002;-66
2022/10/12 02:12:25;;;;;;;11.50;3.88;;;;;;;11.73;60.29;102322.50;5016194;28;98943;-66
2022/10/12 02:14:56;;;;;;;11.15;3.75;;;;;;;11.55;60.74;102324.53;5020293;28;101885;-65
2022/10/12 02:17:24;;;;;;;16.15;4.32;;;;;;;11.65;60.13;102313.81;5012219;27;98622;-65
2022/10/12 02:19:55;;;;;;;12.40;4.07;;;;;;;11.61;59.81;102317.41;5013150;28;98812;-65
2022/10/12 02:22:23;;;;;;;12.10;3.90;;;;;;;11.64;60.25;102312.94;5012331;28;100707;-65
2022/10/12 02:24:53;;;;;;;8.18;3.45;;;;;;;11.63;60.25;102311.16;5013714;28;99071;-67
2022/10/12 02:27:21;;;;;;;17.17;4.85;;;;;;;11.64;60.24;102312.06;5026370;28;98630;-66
2022/10/12 02:29:48;;;;;;;11.38;4.03;;;;;;;11.65;59.86;102316.44;5024833;28;97335;-66
2022/10/12 02:32:21;;;;;;;13.75;4.90;;;;;;;11.55;60.49;102321.88;5025553;28;99365;-65
2022/10/12 02:34:53;;;;;;;13.45;4.60;;;;;;;11.73;59.80;102310.16;5023515;28;100034;-66
2022/10/12 02:37:28;;;;;;;15.65;4.20;;;;;;;11.57;60.30;102312.13;5023628;28;97092;-66
2022/10/12 02:40:00;;;;;;;13.95;4.30;;;;;;;11.63;60.07;102307.66;5013466;28;99042;-67
2022/10/12 02:42:31;;;;;;;13.77;3.92;;;;;;;11.61;59.82;102299.75;5012448;28;100531;-65
2022/10/12 02:45:01;;;;;;;15.93;4.93;;;;;;;11.55;60.19;102306.00;5026839;28;98926;-65
2022/10/12 02:47:30;;;;;;;15.15;4.25;;;;;;;11.51;60.50;102301.66;5025004;28;97008;-65
2022/10/12 02:50:00;;;;;;;14.23;4.78;;;;;;;11.47;60.64;102301.72;5027278;27;97190;-65
2022/10/12 02:52:27;;;;;;;11.18;4.40;;;;;;;11.55;60.13;102283.97;5029221;28;98255;-66
2022/10/12 02:54:54;;;;;;;11.85;4.15;;;;;;;11.67;59.78;102290.84;5027449;28;98976;-65
2022/10/12 02:57:20;;;;;;;12.68;4.25;;;;;;;11.63;60.01;102290.00;5029400;28;96815;-65
2022/10/12 02:59:46;;;;;;;8.30;4.25;;;;;;;11.78;59.56;102294.22;5028559;28;96749;-65
2022/10/12 03:02:13;;;;;;;17.08;4.95;;;;;;;11.76;59.20;102291.59;5029687;28;99085;-65
2022/10/12 03:04:39;;;;;;;12.63;4.30;;;;;;;11.69;59.64;102300.47;5028230;28;99277;-66
2022/10/12 03:07:07;;;;;;;11.52;5.40;;;;;;;11.61;59.91;102290.94;5025147;28;98914;-66
2022/10/12 03:09:34;;;;;;;18.58;5.13;;;;;;;11.58;59.85;102292.72;5028104;28;97312;-65
2022/10/12 03:12:00;;;;;;;16.10;5.30;;;;;;;11.52;59.85;102290.16;5019088;28;99995;-65
2022/10/12 03:14:26;;;;;;;14.70;5.07;;;;;;;11.54;59.62;102291.03;5019441;27;99373;-65
2022/10/12 03:16:53;;;;;;;11.57;4.90;;;;;;;11.75;59.09;102288.97;5015750;27;96962;-68
2022/10/12 03:19:19;;;;;;;11.45;4.80;;;;;;;11.78;58.68;102291.56;5013237;27;97025;-65
2022/10/12 03:21:46;;;;;;;12.98;4.55;;;;;;;11.56;59.48;102293.63;5012154;27;98200;-65
2022/10/12 03:24:13;;;;;;;15.18;5.53;;;;;;;11.61;59.28;102291.81;5018719;27;97925;-65
2022/10/12 03:26:40;;;;;;;13.50;5.07;;;;;;;11.77;58.91;102287.16;5024364;28;99750;-66
2022/10/12 03:29:08;;;;;;;15.65;5.03;;;;;;;11.81;58.48;102291.53;5015234;27;98594;-65
2022/10/12 03:31:34;;;;;;;13.88;5.05;;;;;;;11.78;58.64;102287.16;5017825;28;99076;-65
2022/10/12 03:34:00;;;;;;;16.83;5.32;;;;;;;11.62;59.00;102288.22;5015391;28;99004;-66
2022/10/12 03:36:27;;;;;;;11.93;4.80;;;;;;;11.61;59.49;102290.94;5010624;27;96907;-65
2022/10/12 03:38:53;;;;;;;12.18;5.05;;;;;;;11.71;59.10;102287.22;5019652;27;97745;-65
2022/10/12 03:41:21;;;;;;;15.43;5.18;;;;;;;11.46;59.51;102287.59;5027561;27;98954;-65
2022/10/12 03:43:47;;;;;;;13.82;5.88;;;;;;;11.21;60.48;102286.22;5022675;27;98897;-65
2022/10/12 03:46:13;;;;;;;10.93;4.60;;;;;;;11.64;59.31;102285.56;5012282;27;97262;-66
2022/10/12 03:48:40;;;;;;;16.98;5.40;;;;;;;11.65;59.24;102282.91;5013155;28;96891;-65
2022/10/12 03:51:07;;;;;;;9.85;5.00;;;;;;;11.69;59.09;102284.59;5007246;27;98930;-66
2022/10/12 03:53:33;;;;;;;11.75;5.25;;;;;;;11.58;59.37;102289.19;5011692;28;99223;-65
2022/10/12 03:56:00;;;;;;;12.13;4.90;;;;;;;11.54;59.51;102288.38;5010700;27;98421;-65
2022/10/12 03:58:27;;;;;;;12.65;4.93;;;;;;;11.56;59.39;102286.56;5010986;27;98648;-66
2022/10/12 04:00:54;;;;;;;11.63;5.35;;;;;;;11.55;59.82;102284.81;5010210;28;98857;-65
2022/10/12 04:03:21;;;;;;;13.02;5.60;;;;;;;11.68;59.61;102293.47;5012194;27;98784;-65
2022/10/12 04:05:52;;;;;;;11.48;5.18;;;;;;;11.62;59.77;102288.22;5019098;28;97905;-64
2022/10/12 04:08:19;;;;;;;13.85;5.32;;;;;;;11.62;59.69;102292.69;5014034;28;98334;-65
2022/10/12 04:10:45;;;;;;;10.77;4.85;;;;;;;11.53;59.72;102297.22;5012674;27;99391;-65
2022/10/12 04:13:12;;;;;;;11.65;5.15;;;;;;;11.78;59.36;102289.78;5013219;27;98840;-65
2022/10/12 04:15:39;;;;;;;12.10;4.80;;;;;;;11.77;59.23;102295.09;5020631;28;97035;-64
2022/10/12 04:18:06;;;;;;;10.25;4.93;;;;;;;11.64;59.26;102297.03;5017370;27;98075;-63
2022/10/12 04:20:32;;;;;;;15.45;5.45;;;;;;;11.61;59.53;102296.22;5013779;28;99744;-64
2022/10/12 04:22:59;;;;;;;13.25;5.32;;;;;;;11.68;59.41;102295.25;5013011;28;98831;-65
2022/10/12 04:25:25;;;;;;;11.48;5.07;;;;;;;11.51;60.03;102301.66;5010491;27;98839;-63
2022/10/12 04:27:51;;;;;;;13.68;5.15;;;;;;;11.53;59.75;102302.50;5012551;27;97898;-64
2022/10/12 04:30:18;;;;;;;14.90;5.53;;;;;;;11.38;59.99;102300.06;5012494;28;99243;-64
2022/10/12 04:32:46;;;;;;;16.88;5.80;;;;;;;11.55;59.45;102295.41;5020788;27;99002;-63
2022/10/12 04:35:12;;;;;;;15.40;5.82;;;;;;;11.43;59.69;102292.06;5016352;28;97376;-64
2022/10/12 04:37:39;;;;;;;14.57;5.45;;;;;;;11.50;59.57;102299.00;5027041;28;97755;-65
2022/10/12 04:40:07;;;;;;;12.75;4.75;;;;;;;11.29;60.66;102297.53;5019990;28;99078;-65
2022/10/12 04:42:33;;;;;;;15.43;6.03;;;;;;;11.23;60.32;102294.97;5012826;27;99608;-66
2022/10/12 04:45:00;;;;;;;13.90;5.80;;;;;;;11.47;59.44;102292.00;5023453;27;97649;-65
2022/10/12 04:47:26;;;;;;;14.23;6.18;;;;;;;11.40;59.60;102293.00;5030606;28;96801;-64
2022/10/12 04:49:54;;;;;;;12.40;6.20;;;;;;;11.25;59.98;102295.84;5030599;27;98986;-65
2022/10/12 04:52:20;;;;;;;13.73;5.72;;;;;;;11.28;59.94;102302.88;5029684;28;98745;-64
2022/10/12 04:54:46;;;;;;;12.25;5.22;;;;;;;11.19;60.14;102302.09;5030088;28;98392;-65
2022/10/12 04:57:13;;;;;;;13.18;6.13;;;;;;;11.16;60.31;102303.91;5028805;27;96876;-64
2022/10/12 04:59:39;;;;;;;16.27;6.82;;;;;;;10.97;61.15;102299.75;5030344;27;99195;-63
2022/10/12 05:02:05;;;;;;;13.38;6.10;;;;;;;10.97;60.90;102307.69;5031003;28;98821;-64
2022/10/12 05:04:32;;;;;;;14.90;5.05;;;;;;;10.70;61.42;102303.59;5030462;27;96774;-65
2022/10/12 05:07:00;;;;;;;9.73;5.80;;;;;;;11.01;60.76;102310.28;5029064;28;96932;-64
2022/10/12 05:09:26;;;;;;;16.83;6.05;;;;;;;11.19;60.26;102303.88;5030405;28;98651;-64
2022/10/12 05:11:53;;;;;;;14.57;5.55;;;;;;;11.17;60.10;102305.66;5022394;28;99173;-64
2022/10/12 05:14:19;;;;;;;16.80;5.68;;;;;;;11.08;60.30;102306.66;5014847;27;99035;-64
2022/10/12 05:16:45;;;;;;;15.45;5.63;;;;;;;11.27;60.03;102307.31;5022008;27;97499;-66
2022/10/12 05:19:12;;;;;;;19.70;6.53;;;;;;;11.48;59.28;102298.19;5016611;28;97823;-65
2022/10/12 05:21:39;;;;;;;16.88;5.80;;;;;;;11.65;58.42;102303.22;5019486;28;101180;-65
2022/10/12 05:24:07;;;;;;;13.88;5.90;;;;;;;11.58;58.31;102307.72;5016019;28;99075;-64
2022/10/12 05:26:34;;;;;;;25.73;7.28;;;;;;;11.47;58.64;102313.19;5018988;28;97846;-65
2022/10/12 05:29:00;;;;;;;12.27;5.93;;;;;;;11.25;59.23;102309.06;5017755;28;99595;-64
2022/10/12 05:31:27;;;;;;;16.73;6.05;;;;;;;11.61;58.49;102315.63;5024302;27;98871;-64
2022/10/12 05:33:53;;;;;;;15.10;5.90;;;;;;;11.41;59.03;102317.69;5017220;28;96975;-64
2022/10/12 05:36:20;;;;;;;19.73;6.22;;;;;;;11.56;58.57;102313.03;5015114;28;97976;-64
2022/10/12 05:38:46;;;;;;;17.75;6.13;;;;;;;11.62;58.35;102312.06;5016142;27;99307;-65
2022/10/12 05:41:14;;;;;;;17.98;6.85;;;;;;;11.41;58.75;102315.94;5014337;28;98879;-65
2022/10/12 05:43:40;;;;;;;16.65;6.13;;;;;;;11.45;58.44;102316.75;5016364;28;97143;-64
2022/10/12 05:46:07;;;;;;;15.27;5.80;;;;;;;11.83;57.71;102327.66;5016651;27;98868;-66
2022/10/12 05:48:33;;;;;;;16.80;6.38;;;;;;;11.56;58.31;102320.97;5014978;27;98934;-64
2022/10/12 05:51:00;;;;;;;20.23;6.32;;;;;;;11.72;58.03;102315.47;5016650;28;98918;-64
2022/10/12 05:53:27;;;;;;;23.80;6.97;;;;;;;11.87;57.52;102316.16;5014096;28;98956;-65
2022/10/12 05:55:54;;;;;;;16.95;6.05;;;;;;;11.59;58.11;102315.66;5014822;28;97867;-64
2022/10/12 05:58:22;;;;;;;25.90;6.03;;;;;;;11.65;58.19;102319.97;5015930;28;98906;-65
2022/10/12 06:00:49;;;;;;;88.07;10.23;;;;;;;11.67;58.41;102323.50;5015240;28;98135;-66
2022/10/12 06:03:16;;;;;;;38.47;7.78;;;;;;;11.52;58.47;102321.06;5015163;27;98686;-65
2022/10/12 06:05:42;;;;;;;24.88;5.30;;;;;;;11.65;58.12;102319.97;5017697;28;97100;-66
2022/10/12 06:08:09;;;;;;;11.63;4.80;;;;;;;11.95;57.12;102322.16;5015946;27;98966;-65
2022/10/12 06:10:36;;;;;;;19.13;6.72;;;;;;;12.04;56.76;102318.50;5016942;28;99128;-65
2022/10/12 06:13:03;;;;;;;19.90;5.80;;;;;;;12.12;56.75;102319.25;5015198;28;97669;-64
2022/10/12 06:15:30;;;;;;;22.40;5.38;;;;;;;12.16;56.51;102328.88;5022110;28;97678;-66
2022/10/12 06:17:57;;;;;;;14.85;6.13;;;;;;;12.19;56.32;102327.97;5016880;28;98929;-65
2022/10/12 06:20:23;;;;;;;19.35;6.43;;;;;;;12.27;55.69;102331.38;5013752;27;98864;-65
2022/10/12 06:22:50;;;;;;;18.52;5.57;;;;;;;12.36;56.04;102326.78;5016185;27;96997;-64
2022/10/12 06:25:16;;;;;;;13.65;5.07;;;;;;;12.45;56.03;102335.47;5015932;28;97270;-65
2022/10/12 06:27:44;;;;;;;21.10;6.60;;;;;;;12.45;55.90;102332.81;5017817;28;98391;-65
2022/10/12 06:30:11;;;;;;;17.95;5.75;;;;;;;12.74;54.98;102330.47;5017488;28;97699;-65
2022/10/12 06:32:39;;;;;;;16.55;5.35;;;;;;;12.57;55.23;102329.94;5014772;28;98655;-66
2022/10/12 06:35:06;;;;;;;16.58;5.85;;;;;;;12.97;54.83;102336.22;5012384;27;97902;-66
2022/10/12 06:37:33;;;;;;;20.27;6.00;;;;;;;12.90;54.92;102339.03;5015605;27;99765;-64
2022/10/12 06:40:00;;;;;;;20.20;6.00;;;;;;;13.01;54.67;102345.84;5015331;28;98900;-65
2022/10/12 06:42:26;;;;;;;16.85;6.18;;;;;;;13.06;54.44;102332.50;5015772;27;98649;-65
2022/10/12 06:44:53;;;;;;;16.70;6.07;;;;;;;13.23;54.21;102337.50;5020700;27;97203;-66
2022/10/12 06:47:19;;;;;;;21.95;6.38;;;;;;;13.17;53.99;102338.50;5024670;28;99028;-66
2022/10/12 06:49:47;;;;;;;19.60;5.75;;;;;;;13.13;54.27;102336.78;5027464;28;98776;-65
2022/10/12 06:52:13;;;;;;;21.15;5.65;;;;;;;12.92;54.06;102343.41;5022205;27;96797;-65
2022/10/12 06:54:41;;;;;;;16.17;6.38;;;;;;;13.47;53.05;102337.81;5025233;27;96750;-65
2022/10/12 06:57:07;;;;;;;11.65;5.90;;;;;;;13.40;53.42;102343.28;5029777;27;98292;-65
2022/10/12 06:59:33;;;;;;;19.25;5.72;;;;;;;13.45;53.39;102333.47;5028374;28;99049;-64
2022/10/12 07:02:00;;;;;;;20.15;5.70;;;;;;;13.57;53.20;102333.19;5024777;28;96817;-65
2022/10/12 07:04:26;;;;;;;19.05;5.78;;;;;;;13.85;52.52;102339.59;5020351;28;96883;-65
2022/10/12 07:06:54;;;;;;;19.65;6.65;;;;;;;13.82;52.29;102344.13;5024560;28;98957;-65
2022/10/12 07:09:20;;;;;;;21.58;6.55;;;;;;;13.70;52.85;102345.28;5025465;27;99426;-66
2022/10/12 07:11:47;;;;;;;19.10;6.63;;;;;;;13.72;52.91;102342.59;5029237;27;96859;-66
2022/10/12 07:14:13;;;;;;;20.92;6.65;;;;;;;14.01;52.42;102344.53;5026361;28;97236;-65
2022/10/12 07:16:40;;;;;;;18.45;7.28;;;;;;;13.96;52.49;102345.53;5027815;28;98962;-65
2022/10/12 07:19:06;;;;;;;21.17;5.82;;;;;;;14.20;51.70;102346.69;5027278;27;99164;-66
2022/10/12 07:21:32;;;;;;;25.70;6.68;;;;;;;13.94;52.37;102351.78;5025905;28;97051;-67
2022/10/12 07:24:00;;;;;;;17.92;5.97;;;;;;;13.94;52.47;102347.34;5021661;27;96833;-65
2022/10/12 07:26:26;;;;;;;25.63;7.05;;;;;;;14.03;52.31;102348.91;5021776;27;97672;-66
2022/10/12 07:28:53;;;;;;;27.95;6.35;;;;;;;14.50;51.48;102350.41;5025156;27;98874;-65
2022/10/12 07:31:19;;;;;;;28.90;7.50;;;;;;;14.43;51.46;102348.81;5023279;27;96803;-65
2022/10/12 07:33:46;;;;;;;25.63;7.53;;;;;;;14.73;50.86;102352.44;5019416;27;96858;-66
2022/10/12 07:36:12;;;;;;;27.60;6.75;;;;;;;14.47;51.02;102354.91;5018128;27;98731;-64
2022/10/12 07:38:38;;;;;;;21.10;6.30;;;;;;;14.82;50.72;102351.31;5022570;27;99270;-65
2022/10/12 07:41:06;;;;;;;25.88;6.53;;;;;;;14.85;50.61;102356.53;5022254;27;96834;-65
2022/10/12 07:43:32;;;;;;;19.02;6.22;;;;;;;15.07;50.14;102352.38;5026575;27;97953;-65
2022/10/12 07:45:59;;;;;;;22.52;6.22;;;;;;;15.27;49.50;102343.78;5027196;27;99318;-65
2022/10/12 07:48:25;;;;;;;16.85;5.80;;;;;;;15.41;49.17;102349.59;5023806;27;98773;-64
2022/10/12 07:50:52;;;;;;;21.45;6.07;;;;;;;15.49;49.24;102348.41;5023216;27;96839;-65
2022/10/12 07:53:18;;;;;;;21.02;5.25;;;;;;;15.21;48.83;102350.19;5024967;27;98971;-64
2022/10/12 07:55:44;;;;;;;17.73;5.93;;;;;;;15.76;48.07;102349.38;5024528;27;98992;-65
2022/10/12 07:58:12;;;;;;;18.45;5.82;;;;;;;15.86;47.55;102347.31;5025261;27;99420;-65
2022/10/12 08:00:39;;;;;;;20.20;5.80;;;;;;;15.92;47.18;102347.13;5023190;27;96885;-64
2022/10/12 08:03:06;;;;;;;15.18;4.93;;;;;;;16.08;47.14;102344.81;5006079;27;96898;-64
2022/10/12 08:05:32;;;;;;;22.00;5.30;;;;;;;15.97;47.59;102338.97;5020497;27;98830;-65
2022/10/12 08:07:59;;;;;;;20.75;5.82;;;;;;;16.07;47.46;102343.94;5026241;27;99057;-64
2022/10/12 08:10:25;;;;;;;18.65;5.47;;;;;;;15.97;47.23;102339.84;5019717;27;98255;-65
2022/10/12 08:12:51;;;;;;;20.85;5.90;;;;;;;16.36;46.73;102348.28;5024461;27;97535;-65
2022/10/12 08:15:19;;;;;;;20.27;4.88;;;;;;;16.44;46.53;102343.56;5019605;27;99171;-65
2022/10/12 08:17:45;;;;;;;24.48;6.00;;;;;;;16.51;46.28;102338.88;5022049;27;98826;-65
2022/10/12 08:20:12;;;;;;;19.08;5.90;;;;;;;16.50;46.57;102347.81;5020664;27;97166;-66
2022/10/12 08:22:38;;;;;;;22.45;6.45;;;;;;;16.73;46.24;102339.91;5022850;27;97524;-65
2022/10/12 08:25:06;;;;;;;38.22;10.15;;;;;;;16.68;46.04;102341.84;5025349;27;101463;-65
2022/10/12 08:27:32;;;;;;;20.63;5.82;;;;;;;16.59;46.03;102336.84;5026176;27;99512;-66
2022/10/12 08:29:59;;;;;;;18.35;5.53;;;;;;;16.89;45.20;102335.75;5020192;27;99870;-64
2022/10/12 08:32:26;;;;;;;22.10;4.40;;;;;;;17.19;44.36;102332.88;5024482;27;99197;-66
2022/10/12 08:34:53;;;;;;;24.77;4.80;;;;;;;16.98;44.14;102340.75;5018806;27;99760;-66
2022/10/12 08:37:19;;;;;;;26.20;4.55;;;;;;;17.35;43.46;102340.22;5020926;27;99022;-64
2022/10/12 08:39:45;;;;;;;17.00;3.75;;;;;;;17.50;43.10;102341.44;5025555;27;98762;-65
2022/10/12 08:42:23;;;;;;;13.75;3.55;;;;;;;16.98;43.26;102331.88;5025664;27;96944;-65
2022/10/12 08:45:03;;;;;;;20.33;4.10;;;;;;;17.12;43.28;102335.78;5027038;27;99638;-66
2022/10/12 08:47:40;;;;;;;20.98;3.60;;;;;;;17.56;42.36;102343.00;5024274;27;98705;-66
2022/10/12 08:50:14;;;;;;;17.70;3.85;;;;;;;17.31;42.02;102333.28;5027573;27;97480;-65
2022/10/12 08:52:46;;;;;;;12.88;3.58;;;;;;;17.52;42.11;102339.59;5022261;27;99286;-66
2022/10/12 08:55:23;;;;;;;22.65;3.75;;;;;;;17.75;41.74;102339.56;5018403;27;98977;-66
2022/10/12 08:57:49;;;;;;;19.67;3.78;;;;;;;17.70;41.50;102344.25;5022259;27;100853;-66
2022/10/12 09:00:16;;;;;;;15.85;4.55;;;;;;;18.02;41.41;102342.06;5025506;27;97249;-66
2022/10/12 09:02:56;;;;;;;15.98;3.45;;;;;;;17.87;41.36;102344.41;5020706;27;98223;-66
2022/10/12 09:05:28;;;;;;;14.10;3.25;;;;;;;18.11;41.23;102334.53;5020976;27;99227;-66
2022/10/12 09:08:00;;;;;;;18.55;4.10;;;;;;;18.12;41.38;102332.69;5021495;27;98970;-68
2022/10/12 09:10:38;;;;;;;19.58;4.30;;;;;;;18.20;40.73;102327.91;5019497;27;96986;-66
2022/10/12 09:13:14;;;;;;;11.43;2.67;;;;;;;18.04;41.28;102333.03;5026064;27;97208;-66
2022/10/12 09:15:49;;;;;;;21.05;3.97;;;;;;;18.00;41.20;102319.84;5020927;27;97902;-65
2022/10/12 09:18:21;;;;;;;10.30;2.92;;;;;;;17.92;41.65;102325.50;5023058;28;99071;-65
2022/10/12 09:20:49;;;;;;;12.13;3.17;;;;;;;18.11;41.68;102331.00;5021901;27;98113;-65
2022/10/12 09:23:23;;;;;;;18.15;2.78;;;;;;;17.97;40.99;102317.31;5025033;27;96901;-65
2022/10/12 09:25:50;;;;;;;18.45;3.40;;;;;;;18.14;40.75;102321.00;5020369;27;100005;-66
2022/10/12 09:28:23;;;;;;;12.07;2.90;;;;;;;18.40;40.71;102321.69;5023965;27;98926;-66
2022/10/12 09:31:03;;;;;;;13.45;2.85;;;;;;;18.74;39.99;102319.31;5019630;27;98489;-65
2022/10/12 09:33:37;;;;;;;18.42;3.28;;;;;;;18.75;39.79;102318.38;5022658;27;97921;-66
2022/10/12 09:36:04;;;;;;;17.33;2.75;;;;;;;18.94;39.47;102319.28;5023948;27;99562;-66
2022/10/12 09:38:30;;;;;;;14.85;4.25;;;;;;;18.84;39.11;102314.44;5021724;27;98750;-66
2022/10/12 09:40:57;;;;;;;18.13;3.20;;;;;;;18.92;39.15;102314.94;5025739;27;96734;-65
2022/10/12 09:43:23;;;;;;;17.00;3.40;;;;;;;19.01;38.66;102307.38;5026896;27;96973;-67
2022/10/12 09:45:50;;;;;;;14.55;2.72;;;;;;;18.95;38.62;102310.31;5019708;27;99075;-65
2022/10/12 09:48:19;;;;;;;11.38;2.70;;;;;;;18.89;38.38;102299.91;5026112;27;98269;-66
2022/10/12 09:50:50;;;;;;;15.18;3.72;;;;;;;18.99;38.52;102303.88;5023295;27;96873;-67
2022/10/12 09:53:27;;;;;;;10.90;2.65;;;;;;;19.32;37.72;102298.75;5024665;27;97768;-66
2022/10/12 09:55:56;;;;;;;16.27;3.00;;;;;;;19.35;37.89;102300.44;5023552;27;97805;-66
2022/10/12 09:58:25;;;;;;;8.68;1.85;;;;;;;19.11;37.98;102311.34;5028729;27;97527;-65
2022/10/12 10:01:17;;;;;;;14.95;2.67;;;;;;;19.07;38.25;102298.16;5021937;27;96988;-66
2022/10/12 10:03:44;;;;;;;19.65;2.65;;;;;;;19.30;38.20;102297.94;5021194;27;97709;-65
2022/10/12 10:06:14;;;;;;;9.38;2.35;;;;;;;19.60;37.64;102305.50;5027177;27;99059;-66
2022/10/12 10:08:42;;;;;;;15.70;2.55;;;;;;;19.24;37.48;102306.28;5021623;27;99038;-66
2022/10/12 10:11:15;;;;;;;12.48;2.40;;;;;;;19.16;37.44;102302.25;5026115;27;97364;-66
2022/10/12 10:14:01;;;;;;;10.50;2.53;;;;;;;19.41;37.46;102301.00;5019806;27;99864;-68
2022/10/12 10:16:30;;;;;;;11.38;2.75;;;;;;;19.32;37.26;102300.56;5024200;27;98833;-66
2022/10/12 10:18:58;;;;;;;17.08;3.05;;;;;;;19.45;37.85;102294.53;5025018;27;98719;-66
2022/10/12 10:21:30;;;;;;;14.80;2.35;;;;;;;19.24;37.15;102294.69;5025162;27;97702;-66
2022/10/12 10:23:58;;;;;;;15.60;2.90;;;;;;;19.14;37.85;102288.91;5016613;27;97258;-66
2022/10/12 10:26:27;;;;;;;13.07;2.70;;;;;;;19.20;37.39;102288.63;5024308;27;97732;-66
2022/10/12 10:28:57;;;;;;;13.95;2.70;;;;;;;19.39;37.73;102286.78;5017609;27;101862;-67
2022/10/12 10:31:26;;;;;;;21.02;3.22;;;;;;;19.59;37.31;102287.69;5014026;27;98579;-66
2022/10/12 10:34:11;;;;;;;8.85;1.92;;;;;;;19.59;36.87;102285.00;5019874;27;96930;-66
2022/10/12 10:36:44;;;;;;;10.82;2.10;;;;;;;19.32;36.53;102285.34;5019647;27;99066;-66
2022/10/12 10:39:18;;;;;;;12.27;1.88;;;;;;;19.18;36.66;102281.56;5021728;27;99005;-68
2022/10/12 10:41:45;;;;;;;16.08;1.67;;;;;;;19.09;36.55;102296.28;5017197;27;97331;-67
2022/10/12 10:44:24;;;;;;;10.98;1.85;;;;;;;19.19;36.79;102286.88;5021446;27;97203;-65
2022/10/12 10:46:51;;;;;;;10.15;1.73;;;;;;;19.47;36.38;102292.69;5019470;27;99508;-66
2022/10/12 10:49:27;;;;;;;11.75;1.75;;;;;;;19.44;36.42;102281.19;5022769;27;98764;-66
2022/10/12 10:51:57;;;;;;;11.63;4.20;;;;;;;19.35;36.03;102287.91;5026288;27;97530;-66
2022/10/12 10:54:29;;;;;;;13.68;1.88;;;;;;;19.55;35.96;102283.41;5021548;27;96811;-66
2022/10/12 10:57:01;;;;;;;10.93;1.60;;;;;;;19.40;35.94;102280.50;5023181;27;99075;-66
2022/10/12 10:59:36;;;;;;;10.48;1.85;;;;;;;19.30;36.29;102273.81;5021567;27;98843;-67
2022/10/12 11:02:12;;;;;;;9.95;2.15;;;;;;;19.29;36.71;102279.28;5015549;27;97251;-66
2022/10/12 11:04:43;;;;;;;13.57;1.98;;;;;;;19.13;36.76;102275.56;5015052;27;98318;-66
2022/10/12 11:07:20;;;;;;;8.32;1.52;;;;;;;19.05;36.71;102273.25;5022923;27;99115;-65
2022/10/12 11:09:53;;;;;;;10.75;2.40;;;;;;;19.16;36.16;102268.28;5022893;27;100059;-66
2022/10/12 11:12:25;;;;;;;10.73;1.73;;;;;;;19.43;36.70;102271.41;5020002;27;96938;-65
2022/10/12 11:14:55;;;;;;;9.57;1.40;;;;;;;19.43;36.49;102258.00;5020095;27;97587;-67
2022/10/12 11:17:27;;;;;;;10.90;1.90;;;;;;;19.32;36.68;102260.34;5023918;27;99374;-66
2022/10/12 11:20:05;;;;;;;10.57;1.60;;;;;;;19.50;36.08;102255.00;5016683;27;98887;-65
2022/10/12 11:22:41;;;;;;;17.25;1.45;;;;;;;19.51;35.96;102242.47;5019693;27;98685;-65
2022/10/12 11:25:14;;;;;;;11.30;2.00;;;;;;;19.52;36.33;102240.66;5020186;27;98417;-65